createdAt,value
2023-05-16T00:01:37.497Z,95103.13
2023-05-16T00:04:04.263Z,95105.16
2023-05-16T00:06:31.598Z,95091.50
2023-05-16T00:08:57.974Z,95099.63
2023-05-16T00:11:24.333Z,95098.81
2023-05-16T00:13:50.836Z,95092.31
2023-05-16T00:16:17.308Z,95081.16
2023-05-16T00:18:44.992Z,95083.34
2023-05-16T00:21:11.380Z,95089.31
2023-05-16T00:23:38.335Z,95093.09
2023-05-16T00:26:04.840Z,95086.59
2023-05-16T00:28:31.187Z,95089.88
2023-05-16T00:30:57.609Z,95084.44
2023-05-16T00:33:24.059Z,95083.94
2023-05-16T00:35:50.950Z,95085.09
2023-05-16T00:38:17.295Z,95087.81
2023-05-16T00:40:44.251Z,95084.50
2023-05-16T00:43:10.633Z,95073.66
2023-05-16T00:45:36.965Z,95076.38
2023-05-16T00:48:04.028Z,95082.38
2023-05-16T00:50:30.333Z,95082.19
2023-05-16T00:52:56.690Z,95071.53
2023-05-16T00:55:23.253Z,95079.47
2023-05-16T00:57:50.389Z,95078.16
2023-05-16T01:00:19.088Z,95077.84
2023-05-16T01:02:46.549Z,95077.84
2023-05-16T01:05:12.998Z,95075.94
2023-05-16T01:07:39.263Z,95075.78
2023-05-16T01:10:06.912Z,95076.13
2023-05-16T01:12:41.452Z,95081.91
2023-05-16T01:15:12.160Z,95070.59
2023-05-16T01:17:50.399Z,95077.63
2023-05-16T01:20:28.514Z,95067.66
2023-05-16T01:23:17.025Z,95072.72
2023-05-16T01:25:56.630Z,95074.16
2023-05-16T01:28:25.305Z,95070.94
2023-05-16T01:30:51.666Z,95069.13
2023-05-16T01:33:17.936Z,95065.41
2023-05-16T01:35:55.414Z,95064.13
2023-05-16T01:38:26.165Z,95055.66
2023-05-16T01:40:58.572Z,95065.53
2023-05-16T01:43:33.066Z,95059.75
2023-05-16T01:46:04.306Z,95055.66
2023-05-16T01:48:36.059Z,95058.94
2023-05-16T01:51:03.899Z,95048.84
2023-05-16T01:53:36.384Z,95056.91
2023-05-16T01:56:03.573Z,95058.78
2023-05-16T01:58:33.608Z,95056.47
2023-05-16T02:01:02.589Z,95051.56
2023-05-16T02:03:29.095Z,95050.59
2023-05-16T02:05:55.407Z,95054.47
2023-05-16T02:08:21.755Z,95051.69
2023-05-16T02:10:48.062Z,95053.88
2023-05-16T02:13:14.361Z,95051.44
2023-05-16T02:15:41.276Z,95058.06
2023-05-16T02:18:08.749Z,95059.69
2023-05-16T02:20:35.212Z,95064.38
2023-05-16T02:23:02.522Z,95064.19
2023-05-16T02:25:29.149Z,95066.47
2023-05-16T02:27:55.973Z,95062.81
2023-05-16T02:30:22.323Z,95064.19
2023-05-16T02:32:49.320Z,95063.38
2023-05-16T02:35:15.698Z,95063.47
2023-05-16T02:37:42.005Z,95066.69
2023-05-16T02:40:09.698Z,95058.47
2023-05-16T02:42:35.987Z,95057.38
2023-05-16T02:45:02.518Z,95066.59
2023-05-16T02:47:28.855Z,95065.59
2023-05-16T02:49:55.845Z,95064.63
2023-05-16T02:52:22.164Z,95055.25
2023-05-16T02:55:04.142Z,95053.09
2023-05-16T02:57:35.234Z,95056.78
2023-05-16T03:00:01.617Z,95061.97
2023-05-16T03:02:28.147Z,95056.81
2023-05-16T03:04:55.152Z,95062.56
2023-05-16T03:07:21.433Z,95053.91
2023-05-16T03:09:47.759Z,95049.03
2023-05-16T03:12:14.027Z,95053.09
2023-05-16T03:14:40.320Z,95043.09
2023-05-16T03:17:06.582Z,95051.22
2023-05-16T03:19:32.908Z,95053.84
2023-05-16T03:21:59.833Z,95056.63
2023-05-16T03:24:26.138Z,95053.41
2023-05-16T03:26:52.552Z,95059.09
2023-05-16T03:29:18.873Z,95055.59
2023-05-16T03:31:45.313Z,95052.59
2023-05-16T03:34:11.904Z,95052.31
2023-05-16T03:36:39.064Z,95048.22
2023-05-16T03:39:07.657Z,95050.16
2023-05-16T03:41:34.276Z,95051.25
2023-05-16T03:44:00.513Z,95041.19
2023-05-16T03:46:26.972Z,95041.75
2023-05-16T03:48:53.313Z,95044.19
2023-05-16T03:51:19.607Z,95042.28
2023-05-16T03:53:45.879Z,95044.69
2023-05-16T03:56:12.991Z,95045.72
2023-05-16T03:58:39.267Z,95050.78
2023-05-16T04:01:05.735Z,95045.41
2023-05-16T04:03:32.906Z,95050.25
2023-05-16T04:05:59.354Z,95053.78
2023-05-16T04:08:26.122Z,95060.75
2023-05-16T04:10:52.401Z,95067.84
2023-05-16T04:13:19.377Z,95065.66
2023-05-16T04:15:45.690Z,95065.81
2023-05-16T04:18:12.581Z,95066.91
2023-05-16T04:20:38.956Z,95060.22
2023-05-16T04:23:05.275Z,95051.34
2023-05-16T04:25:31.996Z,95051.66
2023-05-16T04:27:58.280Z,95046.41
2023-05-16T04:30:25.310Z,95055.56
2023-05-16T04:32:51.651Z,95057.63
2023-05-16T04:35:18.150Z,95058.44
2023-05-16T04:37:44.902Z,95061.66
2023-05-16T04:40:12.439Z,95058.88
2023-05-16T04:42:38.942Z,95060.50
2023-05-16T04:45:10.212Z,95060.97
2023-05-16T04:47:37.979Z,95058.72
2023-05-16T04:50:05.540Z,95053.53
2023-05-16T04:52:31.919Z,95053.47
2023-05-16T04:54:59.727Z,95042.84
2023-05-16T04:57:26.932Z,95041.38
2023-05-16T04:59:53.214Z,95040.34
2023-05-16T05:02:19.622Z,95044.50
2023-05-16T05:04:46.701Z,95041.44
2023-05-16T05:07:13.722Z,95045.53
2023-05-16T05:09:39.979Z,95050.66
2023-05-16T05:12:07.354Z,95044.09
2023-05-16T05:14:33.610Z,95049.78
2023-05-16T05:16:59.920Z,95047.16
2023-05-16T05:19:26.289Z,95053.69
2023-05-16T05:21:53.291Z,95054.84
2023-05-16T05:24:19.653Z,95056.84
2023-05-16T05:26:46.034Z,95049.50
2023-05-16T05:29:12.310Z,95054.94
2023-05-16T05:31:38.626Z,95054.41
2023-05-16T05:34:05.095Z,95050.66
2023-05-16T05:36:31.371Z,95044.50
2023-05-16T05:38:58.443Z,95045.94
2023-05-16T05:41:25.572Z,95043.72
2023-05-16T05:43:52.045Z,95052.06
2023-05-16T05:46:18.481Z,95048.75
2023-05-16T05:48:45.010Z,95050.59
2023-05-16T05:51:13.420Z,95046.00
2023-05-16T05:53:40.086Z,95040.50
2023-05-16T05:56:07.219Z,95042.97
2023-05-16T05:58:33.551Z,95045.81
2023-05-16T06:00:59.968Z,95037.91
2023-05-16T06:03:26.344Z,95039.94
2023-05-16T06:05:52.732Z,95037.56
2023-05-16T06:08:19.095Z,95040.69
2023-05-16T06:10:45.707Z,95031.53
2023-05-16T06:13:12.637Z,95035.09
2023-05-16T06:15:38.960Z,95044.00
2023-05-16T06:18:05.495Z,95031.66
2023-05-16T06:20:31.858Z,95027.94
2023-05-16T06:22:58.171Z,95035.28
2023-05-16T06:25:24.530Z,95025.91
2023-05-16T06:27:50.830Z,95029.34
2023-05-16T06:30:17.923Z,95037.28
2023-05-16T06:32:44.484Z,95028.66
2023-05-16T06:35:10.800Z,95028.44
2023-05-16T06:37:37.113Z,95025.31
2023-05-16T06:40:03.972Z,95012.94
2023-05-16T06:42:30.289Z,95018.66
2023-05-16T06:44:56.633Z,95015.00
2023-05-16T06:47:23.584Z,95028.06
2023-05-16T06:49:50.382Z,95021.97
2023-05-16T06:52:16.790Z,95024.69
2023-05-16T06:54:43.154Z,95016.09
2023-05-16T06:57:09.521Z,95021.88
2023-05-16T06:59:36.098Z,95021.38
2023-05-16T07:02:02.436Z,95025.63
2023-05-16T07:04:29.437Z,95022.03
2023-05-16T07:06:55.828Z,95025.75
2023-05-16T07:09:22.145Z,95028.22
2023-05-16T07:11:48.559Z,95029.59
2023-05-16T07:14:14.898Z,95032.91
2023-05-16T07:16:41.396Z,95023.59
2023-05-16T07:19:08.009Z,95027.31
2023-05-16T07:21:35.173Z,95010.91
2023-05-16T07:24:01.487Z,95019.31
2023-05-16T07:26:27.837Z,95010.84
2023-05-16T07:28:54.581Z,95013.88
2023-05-16T07:31:24.159Z,95011.34
2023-05-16T07:33:50.645Z,95016.22
2023-05-16T07:36:17.668Z,95024.09
2023-05-16T07:38:45.112Z,95039.56
2023-05-16T07:41:11.802Z,95039.19
2023-05-16T07:43:38.197Z,95043.84
2023-05-16T07:46:05.294Z,95054.50
2023-05-16T07:48:31.794Z,95054.22
2023-05-16T07:50:58.178Z,95072.31
2023-05-16T07:53:24.618Z,95073.09
2023-05-16T07:55:51.760Z,95083.00
2023-05-16T07:58:18.139Z,95085.28
2023-05-16T08:00:44.628Z,95088.00
2023-05-16T08:03:11.381Z,95086.94
2023-05-16T08:05:38.637Z,95105.81
2023-05-16T08:08:05.467Z,95104.28
2023-05-16T08:10:34.388Z,95101.34
2023-05-16T08:13:01.414Z,95102.16
2023-05-16T08:15:28.320Z,95102.28
2023-05-16T08:17:58.098Z,95092.97
2023-05-16T08:20:24.524Z,95108.75
2023-05-16T08:22:53.683Z,95104.34
2023-05-16T08:25:20.487Z,95104.84
2023-05-16T08:27:48.513Z,95106.19
2023-05-16T08:30:15.617Z,95106.69
2023-05-16T08:32:41.985Z,95093.50
2023-05-16T08:35:10.167Z,95100.69
2023-05-16T08:37:36.482Z,95092.44
2023-05-16T08:40:07.608Z,95088.31
2023-05-16T08:42:34.960Z,95098.50
2023-05-16T08:45:01.408Z,95096.50
2023-05-16T08:47:31.264Z,95099.41
2023-05-16T08:49:58.505Z,95099.31
2023-05-16T08:52:29.133Z,95089.34
2023-05-16T08:55:09.401Z,95093.78
2023-05-16T08:57:37.475Z,95082.78
2023-05-16T09:00:12.884Z,95083.19
2023-05-16T09:02:40.826Z,95092.56
2023-05-16T09:05:10.597Z,95100.72
2023-05-16T09:07:37.010Z,95101.13
2023-05-16T09:10:05.066Z,95105.84
2023-05-16T09:12:31.414Z,95080.06
2023-05-16T09:14:58.155Z,95072.69
2023-05-16T09:17:32.224Z,95061.66
2023-05-16T09:20:11.161Z,95062.97
2023-05-16T09:22:37.886Z,95066.19
2023-05-16T09:25:06.849Z,95064.38
2023-05-16T09:27:34.980Z,95062.78
2023-05-16T09:30:02.070Z,95054.06
2023-05-16T09:32:28.424Z,95062.97
2023-05-16T09:34:57.122Z,95042.94
2023-05-16T09:37:24.663Z,95041.75
2023-05-16T09:39:52.384Z,95035.72
2023-05-16T09:42:20.309Z,95047.50
2023-05-16T09:44:48.620Z,95039.91
2023-05-16T09:47:15.656Z,95037.25
2023-05-16T09:49:42.133Z,95042.56
2023-05-16T09:52:09.443Z,95047.22
2023-05-16T09:54:36.582Z,95046.91
2023-05-16T09:57:03.247Z,95051.56
2023-05-16T09:59:30.109Z,95043.63
2023-05-16T10:01:58.851Z,95051.06
2023-05-16T10:04:25.285Z,95059.38
2023-05-16T10:06:54.135Z,95056.50
2023-05-16T10:09:22.073Z,95052.75
2023-05-16T10:11:51.230Z,95052.97
2023-05-16T10:14:18.608Z,95057.56
2023-05-16T10:16:48.149Z,95066.50
2023-05-16T10:19:16.083Z,95073.97
2023-05-16T10:21:48.933Z,95073.31
2023-05-16T10:24:19.875Z,95075.47
2023-05-16T10:26:46.422Z,95073.13
2023-05-16T10:29:13.970Z,95066.63
2023-05-16T10:31:41.235Z,95069.69
2023-05-16T10:34:07.704Z,95065.47
2023-05-16T10:36:34.696Z,95079.88
2023-05-16T10:39:02.254Z,95080.59
2023-05-16T10:41:28.722Z,95089.03
2023-05-16T10:43:58.935Z,95091.44
2023-05-16T10:46:28.333Z,95088.03
2023-05-16T10:48:56.529Z,95090.91
2023-05-16T10:51:34.641Z,95095.97
2023-05-16T10:54:06.110Z,95097.69
2023-05-16T10:56:32.969Z,95103.22
2023-05-16T10:58:59.298Z,95096.78
2023-05-16T11:01:28.802Z,95102.50
2023-05-16T11:04:16.475Z,95107.16
2023-05-16T11:06:50.362Z,95098.50
2023-05-16T11:09:22.696Z,95098.69
2023-05-16T11:11:59.003Z,95102.22
2023-05-16T11:14:28.066Z,95101.53
2023-05-16T11:17:01.504Z,95095.56
2023-05-16T11:19:33.712Z,95099.66
2023-05-16T11:22:07.582Z,95098.88
2023-05-16T11:24:35.584Z,95097.38
2023-05-16T11:27:03.122Z,95107.47
2023-05-16T11:29:31.615Z,95089.66
2023-05-16T11:31:59.357Z,95101.63
2023-05-16T11:34:25.783Z,95091.13
2023-05-16T11:36:52.449Z,95096.13
2023-05-16T11:39:19.306Z,95096.78
2023-05-16T11:41:47.809Z,95093.84
2023-05-16T11:44:15.428Z,95096.78
2023-05-16T11:46:42.074Z,95096.78
2023-05-16T11:49:09.892Z,95092.84
2023-05-16T11:51:37.974Z,95101.50
2023-05-16T11:54:04.764Z,95106.22
2023-05-16T11:56:31.507Z,95100.63
2023-05-16T11:58:58.727Z,95091.75
2023-05-16T12:01:25.551Z,95097.13
2023-05-16T12:03:58.346Z,95097.63
2023-05-16T12:06:25.921Z,95092.25
2023-05-16T12:08:52.844Z,95094.19
2023-05-16T12:11:21.035Z,95088.63
2023-05-16T12:13:50.151Z,95085.94
2023-05-16T12:16:16.738Z,95086.56
2023-05-16T12:18:43.912Z,95082.47
2023-05-16T12:21:10.443Z,95082.09
2023-05-16T12:23:37.453Z,95083.16
2023-05-16T12:26:07.278Z,95074.44
2023-05-16T12:28:34.908Z,95075.25
2023-05-16T12:31:01.308Z,95074.00
2023-05-16T12:33:27.790Z,95075.16
2023-05-16T12:35:54.381Z,95061.88
2023-05-16T12:38:20.905Z,95062.97
2023-05-16T12:40:47.914Z,95062.66
2023-05-16T12:43:14.896Z,95061.97
2023-05-16T12:45:41.560Z,95043.81
2023-05-16T12:48:12.576Z,95052.53
2023-05-16T12:50:39.641Z,95040.78
2023-05-16T12:53:12.086Z,95042.53
2023-05-16T12:55:38.490Z,95044.16
2023-05-16T12:58:05.875Z,95036.59
2023-05-16T13:00:32.277Z,95044.34
2023-05-16T13:02:58.801Z,95037.28
2023-05-16T13:05:25.438Z,95048.66
2023-05-16T13:07:52.046Z,95048.19
2023-05-16T13:10:18.678Z,95053.28
2023-05-16T13:12:45.403Z,95053.13
2023-05-16T13:15:12.455Z,95055.25
2023-05-16T13:17:40.079Z,95053.47
2023-05-16T13:20:09.225Z,95056.22
2023-05-16T13:22:35.834Z,95050.25
2023-05-16T13:25:03.837Z,95050.41
2023-05-16T13:27:30.459Z,95038.69
2023-05-16T13:29:57.627Z,95038.88
2023-05-16T13:32:24.962Z,95044.34
2023-05-16T13:34:51.635Z,95047.19
2023-05-16T13:37:18.073Z,95051.78
2023-05-16T13:39:44.476Z,95055.41
2023-05-16T13:42:11.099Z,95074.63
2023-05-16T13:44:37.714Z,95078.31
2023-05-16T13:47:04.230Z,95074.25
2023-05-16T13:49:31.221Z,95089.09
2023-05-16T13:51:57.866Z,95096.91
2023-05-16T13:54:24.657Z,95096.59
2023-05-16T13:56:51.010Z,95095.03
2023-05-16T13:59:32.011Z,95088.22
2023-05-16T14:02:04.190Z,95089.22
2023-05-16T14:04:31.343Z,95089.66
2023-05-16T14:06:57.680Z,95084.31
2023-05-16T14:09:24.034Z,95092.16
2023-05-16T14:11:50.388Z,95093.97
2023-05-16T14:14:16.744Z,95091.84
2023-05-16T14:16:45.154Z,95095.28
2023-05-16T14:19:12.011Z,95095.91
2023-05-16T14:21:39.506Z,95095.28
2023-05-16T14:24:07.015Z,95110.28
2023-05-16T14:26:33.405Z,95100.84
2023-05-16T14:29:00.003Z,95107.84
2023-05-16T14:31:26.405Z,95118.34
2023-05-16T14:33:52.780Z,95123.69
2023-05-16T14:36:19.116Z,95125.69
2023-05-16T14:38:46.134Z,95127.81
2023-05-16T14:41:12.608Z,95132.63
2023-05-16T14:43:38.999Z,95142.50
2023-05-16T14:46:05.351Z,95138.16
2023-05-16T14:48:32.692Z,95156.75
2023-05-16T14:50:59.214Z,95157.75
2023-05-16T14:53:25.913Z,95164.59
2023-05-16T14:55:52.969Z,95156.75
2023-05-16T14:58:19.342Z,95171.78
2023-05-16T15:00:45.671Z,95167.38
2023-05-16T15:03:13.185Z,95173.72
2023-05-16T15:05:41.494Z,95165.59
2023-05-16T15:08:07.828Z,95168.31
2023-05-16T15:10:34.162Z,95175.84
2023-05-16T15:13:01.185Z,95183.47
2023-05-16T15:15:28.050Z,95177.84
2023-05-16T15:17:54.508Z,95177.03
2023-05-16T15:20:22.633Z,95178.66
2023-05-16T15:22:49.211Z,95174.84
2023-05-16T15:25:15.589Z,95178.81
2023-05-16T15:27:42.963Z,95182.91
2023-05-16T15:30:11.539Z,95177.59
2023-05-16T15:32:38.103Z,95189.97
2023-05-16T15:35:05.434Z,95173.91
2023-05-16T15:37:31.955Z,95188.81
2023-05-16T15:39:58.311Z,95186.59
2023-05-16T15:42:24.666Z,95186.16
2023-05-16T15:44:51.223Z,95179.19
2023-05-16T15:47:18.268Z,95192.56
2023-05-16T15:49:44.907Z,95194.38
2023-05-16T15:52:11.293Z,95191.34
2023-05-16T15:54:37.661Z,95193.25
2023-05-16T15:57:04.341Z,95201.50
2023-05-16T15:59:30.750Z,95199.00
2023-05-16T16:01:57.148Z,95196.97
2023-05-16T16:04:24.140Z,95198.28
2023-05-16T16:06:50.571Z,95194.47
2023-05-16T16:09:17.207Z,95192.16
2023-05-16T16:11:43.579Z,95193.25
2023-05-16T16:14:10.421Z,95194.59
2023-05-16T16:16:38.804Z,95192.53
2023-05-16T16:19:05.289Z,95201.63
2023-05-16T16:21:32.712Z,95197.69
2023-05-16T16:23:59.153Z,95198.22
2023-05-16T16:26:25.808Z,95201.41
2023-05-16T16:28:52.147Z,95207.88
2023-05-16T16:31:18.647Z,95205.97
2023-05-16T16:33:48.257Z,95214.69
2023-05-16T16:36:15.161Z,95210.06
2023-05-16T16:38:42.231Z,95212.16
2023-05-16T16:41:09.307Z,95220.28
2023-05-16T16:43:36.451Z,95227.84
2023-05-16T16:46:02.869Z,95224.03
2023-05-16T16:48:29.233Z,95223.00
2023-05-16T16:50:56.034Z,95222.78
2023-05-16T16:53:22.376Z,95221.25
2023-05-16T16:55:49.348Z,95223.97
2023-05-16T16:58:15.779Z,95231.44
2023-05-16T17:00:42.092Z,95234.03
2023-05-16T17:03:08.526Z,95240.19
2023-05-16T17:05:35.019Z,95236.66
2023-05-16T17:08:01.419Z,95237.84
2023-05-16T17:10:28.030Z,95249.19
2023-05-16T17:12:55.197Z,95244.28
2023-05-16T17:15:21.630Z,95254.50
2023-05-16T17:17:48.421Z,95252.66
2023-05-16T17:20:14.761Z,95250.75
2023-05-16T17:22:41.303Z,95245.84
2023-05-16T17:25:09.077Z,95249.13
2023-05-16T17:27:35.415Z,95252.72
2023-05-16T17:30:03.950Z,95247.81
2023-05-16T17:32:30.292Z,95240.28
2023-05-16T17:34:56.851Z,95240.97
2023-05-16T17:37:23.170Z,95248.41
2023-05-16T17:39:49.648Z,95248.09
2023-05-16T17:42:16.003Z,95239.13
2023-05-16T17:44:42.933Z,95253.59
2023-05-16T17:47:10.642Z,95247.09
2023-05-16T17:49:37.011Z,95244.78
2023-05-16T17:52:03.802Z,95254.69
2023-05-16T17:54:31.338Z,95254.16
2023-05-16T17:56:57.831Z,95253.06
2023-05-16T17:59:26.574Z,95266.94
2023-05-16T18:01:53.090Z,95257.66
2023-05-16T18:04:21.754Z,95257.34
2023-05-16T18:06:48.861Z,95259.56
2023-05-16T18:09:15.202Z,95256.56
2023-05-16T18:11:41.886Z,95266.59
2023-05-16T18:14:08.585Z,95268.94
2023-05-16T18:16:35.317Z,95266.81
2023-05-16T18:19:04.069Z,95267.72
2023-05-16T18:21:31.288Z,95270.84
2023-05-16T18:23:59.319Z,95271.03
2023-05-16T18:26:27.733Z,95272.41
2023-05-16T18:28:54.082Z,95275.78
2023-05-16T18:31:20.574Z,95275.72
2023-05-16T18:33:47.106Z,95286.72
2023-05-16T18:36:13.477Z,95278.09
2023-05-16T18:38:40.605Z,95293.56
2023-05-16T18:41:07.121Z,95292.28
2023-05-16T18:43:34.626Z,95299.81
2023-05-16T18:46:00.936Z,95304.75
2023-05-16T18:48:27.335Z,95308.25
2023-05-16T18:50:53.753Z,95303.41
2023-05-16T18:53:20.157Z,95303.72
2023-05-16T18:55:47.827Z,95308.09
2023-05-16T18:58:14.285Z,95314.31
2023-05-16T19:00:40.678Z,95309.41
2023-05-16T19:03:08.974Z,95312.94
2023-05-16T19:05:35.678Z,95309.41
2023-05-16T19:08:02.077Z,95316.19
2023-05-16T19:10:28.605Z,95324.31
2023-05-16T19:12:56.061Z,95329.03
2023-05-16T19:15:22.479Z,95331.06
2023-05-16T19:17:48.869Z,95334.91
2023-05-16T19:20:15.260Z,95339.72
2023-05-16T19:22:41.717Z,95338.78
2023-05-16T19:25:08.954Z,95356.78
2023-05-16T19:27:35.376Z,95354.69
2023-05-16T19:30:02.628Z,95364.78
2023-05-16T19:32:29.623Z,95381.13
2023-05-16T19:34:56.234Z,95377.34
2023-05-16T19:37:22.771Z,95376.78
2023-05-16T19:39:49.146Z,95377.38
2023-05-16T19:42:15.507Z,95378.75
2023-05-16T19:44:42.256Z,95383.06
2023-05-16T19:47:09.350Z,95385.34
2023-05-16T19:49:35.810Z,95384.72
2023-05-16T19:52:03.995Z,95389.16
2023-05-16T19:54:33.289Z,95394.03
2023-05-16T19:56:59.797Z,95391.88
2023-05-16T19:59:26.406Z,95392.69
2023-05-16T20:01:52.985Z,95398.19
2023-05-16T20:04:20.058Z,95398.44
2023-05-16T20:06:46.555Z,95401.47
2023-05-16T20:09:12.919Z,95421.22
2023-05-16T20:11:39.292Z,95423.66
2023-05-16T20:14:05.755Z,95415.28
2023-05-16T20:16:32.198Z,95416.34
2023-05-16T20:18:58.655Z,95410.41
2023-05-16T20:21:25.782Z,95413.94
2023-05-16T20:23:52.244Z,95415.09
2023-05-16T20:26:18.666Z,95409.13
2023-05-16T20:28:45.195Z,95415.91
2023-05-16T20:31:11.554Z,95414.34
2023-05-16T20:33:38.048Z,95424.91
2023-05-16T20:36:04.723Z,95420.56
2023-05-16T20:38:31.759Z,95411.91
2023-05-16T20:40:58.848Z,95428.16
2023-05-16T20:43:26.751Z,95426.00
2023-05-16T20:45:53.294Z,95420.34
2023-05-16T20:48:22.965Z,95427.13
2023-05-16T20:50:49.367Z,95425.22
2023-05-16T20:53:15.819Z,95424.41
2023-05-16T20:55:42.842Z,95430.63
2023-05-16T20:58:09.220Z,95427.66
2023-05-16T21:00:35.552Z,95432.50
2023-05-16T21:03:01.972Z,95435.50
2023-05-16T21:05:28.427Z,95433.06
2023-05-16T21:07:54.824Z,95431.13
2023-05-16T21:10:21.234Z,95436.31
2023-05-16T21:12:49.391Z,95435.50
2023-05-16T21:15:15.752Z,95434.13
2023-05-16T21:17:42.890Z,95438.22
2023-05-16T21:20:09.930Z,95445.00
2023-05-16T21:22:36.333Z,95446.34
2023-05-16T21:25:02.899Z,95446.91
2023-05-16T21:27:29.268Z,95452.88
2023-05-16T21:29:56.279Z,95456.38
2023-05-16T21:32:22.665Z,95458.53
2023-05-16T21:34:48.963Z,95460.72
2023-05-16T21:37:16.145Z,95460.19
2023-05-16T21:39:42.506Z,95468.84
2023-05-16T21:42:08.852Z,95466.97
2023-05-16T21:44:35.224Z,95479.13
2023-05-16T21:47:02.210Z,95480.53
2023-05-16T21:49:28.577Z,95471.59
2023-05-16T21:51:54.963Z,95484.28
2023-05-16T21:54:21.358Z,95487.53
2023-05-16T21:56:47.729Z,95492.69
2023-05-16T21:59:14.097Z,95498.91
2023-05-16T22:01:40.476Z,95497.28
2023-05-16T22:04:07.689Z,95493.25
2023-05-16T22:06:34.187Z,95498.94
2023-05-16T22:09:01.173Z,95500.56
2023-05-16T22:11:27.764Z,95497.56
2023-05-16T22:13:54.153Z,95491.91
2023-05-16T22:16:20.501Z,95498.91
2023-05-16T22:18:47.065Z,95498.09
2023-05-16T22:21:15.430Z,95501.66
2023-05-16T22:23:41.799Z,95503.25
2023-05-16T22:26:08.197Z,95501.63
2023-05-16T22:28:34.546Z,95501.91
2023-05-16T22:31:00.869Z,95507.03
2023-05-16T22:33:27.333Z,95509.75
2023-05-16T22:35:54.043Z,95508.66
2023-05-16T22:38:21.148Z,95500.28
2023-05-16T22:40:47.492Z,95495.69
2023-05-16T22:43:13.853Z,95505.13
2023-05-16T22:45:40.258Z,95505.41
2023-05-16T22:48:06.747Z,95510.03
2023-05-16T22:50:33.232Z,95505.13
2023-05-16T22:58:01.830Z,95512.16
2023-05-16T23:00:28.168Z,95509.72
2023-05-16T23:02:54.638Z,95514.88
2023-05-16T23:05:21.086Z,95522.69
2023-05-16T23:07:47.455Z,95530.00
2023-05-16T23:10:13.862Z,95518.91
2023-05-16T23:12:40.200Z,95519.47
2023-05-16T23:15:09.404Z,95521.59
2023-05-16T23:17:36.763Z,95523.22
2023-05-16T23:20:03.948Z,95524.56
2023-05-16T23:22:30.391Z,95520.81
2023-05-16T23:24:56.698Z,95529.44
2023-05-16T23:27:23.151Z,95528.09
2023-05-16T23:29:49.457Z,95538.31
2023-05-16T23:32:16.550Z,95534.59
2023-05-16T23:34:42.876Z,95532.41
2023-05-16T23:37:09.252Z,95539.69
2023-05-16T23:39:35.581Z,95539.66
2023-05-16T23:42:01.906Z,95540.19
2023-05-16T23:44:28.369Z,95547.22
2023-05-16T23:46:54.720Z,95551.56
2023-05-16T23:49:21.699Z,95544.81
2023-05-16T23:51:57.474Z,95552.34
2023-05-16T23:54:24.761Z,95553.97
2023-05-16T23:56:51.293Z,95553.97
2023-05-16T23:59:18.546Z,95543.97
